This is the latest recevied weather packets stored in our database for station/object N9XRG. If no packets are shown the sender has not sent any weather packets the latest 10 day(s).
| Time | Temp. | Humidity | Pressure | Rain* | Wind** | Luminosity | Snow |
|---|---|---|---|---|---|---|---|
| 1777562707 | 11.67° C | 61% | 1016.7 hPa | 0 mm | - | 847 W/m² | - |
| 1777562406 | 10.56° C | 66% | 1016.6 hPa | 0 mm | - | 826 W/m² | - |
| 1777562102 | 11.67° C | 62% | 1016.6 hPa | 0 mm | - | 106 W/m² | - |
| 1777561800 | 12.22° C | 58% | 1016.7 hPa | 0 mm | - | 904 W/m² | - |
| 1777561496 | 12.22° C | 61% | 1016.7 hPa | 0 mm | - | 816 W/m² | - |
| 1777561191 | 12.22° C | 59% | 1016.7 hPa | 0 mm | - | 773 W/m² | - |
| 1777560885 | 12.22° C | 62% | 1016.8 hPa | 0 mm | - | 758 W/m² | - |
| 1777560584 | 12.22° C | 66% | 1016.4 hPa | 0 mm | - | 806 W/m² | - |
| 1777560281 | 11.67° C | 63% | 1016.5 hPa | 0 mm | - | 784 W/m² | - |
| 1777559979 | 10.56° C | 65% | 1016.6 hPa | 0 mm | - | 755 W/m² | - |
| 1777559679 | 10.56° C | 65% | 1016.7 hPa | 0 mm | - | 164 W/m² | - |
| 1777559377 | 10° C | 67% | 1016.6 hPa | 0 mm | - | 782 W/m² | - |
| 1777559073 | 10° C | 65% | 1016.7 hPa | 0 mm | - | 185 W/m² | - |
| 1777558773 | 10.56° C | 63% | 1016.4 hPa | 0 mm | - | 711 W/m² | - |
| 1777558470 | 10.56° C | 65% | 1016.7 hPa | 0 mm | - | 667 W/m² | - |
| 1777558166 | 10.56° C | 65% | 1016.4 hPa | 0 mm | - | 592 W/m² | - |
| 1777557862 | 10.56° C | 65% | 1016.4 hPa | 0 mm | - | 582 W/m² | - |
| 1777557560 | 10.56° C | 64% | 1016.3 hPa | 0 mm | - | 548 W/m² | - |
| 1777557256 | 10.56° C | 65% | 1016.3 hPa | 0 mm | - | 513 W/m² | - |
| 1777556952 | 10.56° C | 62% | 1016 hPa | 0 mm | - | 494 W/m² | - |
| 1777556647 | 10° C | 65% | 1016.1 hPa | 0 mm | - | 473 W/m² | - |
| 1777556342 | 10° C | 65% | 1016.3 hPa | 0 mm | - | 455 W/m² | - |
| 1777556038 | 10° C | 64% | 1016.3 hPa | 0 mm | - | 439 W/m² | - |
| 1777555733 | 10° C | 66% | 1016.3 hPa | 0 mm | - | 419 W/m² | - |
| 1777555430 | 10° C | 64% | 1016.1 hPa | 0 mm | - | 400 W/m² | - |
* Rain latest hour (hover to see other rain measurements)
** Current wind speed in m/s (hover to see current wind gust speed)